createdAt,value
2019-04-29T00:01:36.835Z,4.74
2019-04-29T00:04:02.799Z,4.70
2019-04-29T00:06:28.747Z,4.69
2019-04-29T00:08:54.744Z,4.70
2019-04-29T00:11:20.810Z,4.68
2019-04-29T00:13:46.761Z,4.66
2019-04-29T00:16:31.418Z,4.66
2019-04-29T00:19:02.263Z,4.67
2019-04-29T00:21:28.375Z,4.66
2019-04-29T00:24:03.533Z,4.65
2019-04-29T00:26:22.417Z,4.64
2019-04-29T00:28:50.410Z,4.63
2019-04-29T00:31:16.267Z,4.58
2019-04-29T00:33:42.377Z,4.58
2019-04-29T00:36:08.415Z,4.60
2019-04-29T00:38:36.327Z,4.60
2019-04-29T00:41:04.373Z,4.57
2019-04-29T00:43:38.211Z,4.54
2019-04-29T00:46:04.509Z,4.53
2019-04-29T00:48:30.402Z,4.53
2019-04-29T00:50:56.544Z,4.53
2019-04-29T00:53:22.645Z,4.54
2019-04-29T00:55:50.077Z,4.56
2019-04-29T00:58:16.106Z,4.58
2019-04-29T01:00:42.443Z,4.59
2019-04-29T01:03:08.662Z,4.59
2019-04-29T01:05:35.542Z,4.59
2019-04-29T01:08:01.523Z,4.59
2019-04-29T01:10:27.509Z,4.58
2019-04-29T01:12:53.433Z,4.58
2019-04-29T01:15:19.552Z,4.56
2019-04-29T01:17:45.749Z,4.55
2019-04-29T01:20:11.890Z,4.54
2019-04-29T01:22:39.722Z,4.53
2019-04-29T01:25:05.689Z,4.53
2019-04-29T01:27:33.588Z,4.52
2019-04-29T01:29:59.436Z,4.51
2019-04-29T01:32:25.396Z,4.49
2019-04-29T01:34:54.729Z,4.48
2019-04-29T01:37:22.578Z,4.47
2019-04-29T01:39:50.437Z,4.46
2019-04-29T01:42:21.215Z,4.45
2019-04-29T01:44:47.064Z,4.43
2019-04-29T01:47:13.035Z,4.42
2019-04-29T01:49:38.965Z,4.38
2019-04-29T01:52:04.818Z,4.36
2019-04-29T01:54:30.758Z,4.35
2019-04-29T01:56:56.747Z,4.35
2019-04-29T01:59:22.611Z,4.34
2019-04-29T02:01:48.584Z,4.35
2019-04-29T02:04:14.504Z,4.33
2019-04-29T02:06:40.505Z,4.33
2019-04-29T02:09:10.060Z,4.31
2019-04-29T02:11:36.121Z,4.09
2019-04-29T02:14:02.301Z,4.30
2019-04-29T02:16:28.175Z,4.28
2019-04-29T02:18:54.189Z,4.25
2019-04-29T02:21:20.061Z,4.21
2019-04-29T02:23:48.033Z,4.17
2019-04-29T02:26:13.930Z,4.16
2019-04-29T02:28:39.887Z,4.13
2019-04-29T02:31:24.205Z,4.11
2019-04-29T02:33:50.166Z,4.09
2019-04-29T02:36:16.387Z,4.08
2019-04-29T02:38:46.794Z,4.09
2019-04-29T02:41:17.425Z,4.09
2019-04-29T02:43:45.163Z,4.10
2019-04-29T02:46:11.259Z,4.11
2019-04-29T02:48:37.138Z,4.11
2019-04-29T02:51:03.127Z,4.11
2019-04-29T02:53:29.070Z,4.11
2019-04-29T02:55:56.868Z,4.12
2019-04-29T02:58:30.504Z,4.11
2019-04-29T03:01:04.271Z,4.10
2019-04-29T03:03:32.143Z,4.07
2019-04-29T03:05:59.988Z,4.07
2019-04-29T03:08:25.961Z,4.07
2019-04-29T03:10:52.004Z,4.07
2019-04-29T03:13:18.021Z,4.05
2019-04-29T03:15:44.011Z,4.02
2019-04-29T03:18:10.063Z,4.01
2019-04-29T03:20:40.835Z,3.96
2019-04-29T03:23:08.632Z,3.91
2019-04-29T03:25:34.487Z,3.84
2019-04-29T03:28:00.384Z,3.74
2019-04-29T03:30:26.279Z,3.69
2019-04-29T03:32:52.258Z,3.71
2019-04-29T03:35:18.112Z,3.74
2019-04-29T03:37:44.498Z,3.77
2019-04-29T03:40:10.484Z,3.79
2019-04-29T03:42:36.357Z,3.79
2019-04-29T03:45:03.416Z,3.80
2019-04-29T03:47:29.246Z,3.82
2019-04-29T03:49:55.206Z,3.84
2019-04-29T03:52:21.054Z,3.87
2019-04-29T03:54:46.984Z,3.88
2019-04-29T03:57:14.503Z,3.89
2019-04-29T03:59:40.449Z,3.91
2019-04-29T04:02:08.359Z,3.87
2019-04-29T04:04:54.232Z,3.84
2019-04-29T04:07:38.672Z,3.83
2019-04-29T04:10:05.446Z,3.82
2019-04-29T04:12:31.293Z,3.84
2019-04-29T04:14:57.131Z,3.85
2019-04-29T04:17:27.525Z,3.89
2019-04-29T04:19:53.709Z,3.93
2019-04-29T04:22:19.664Z,3.93
2019-04-29T04:24:45.528Z,3.94
2019-04-29T04:27:11.509Z,3.94
2019-04-29T04:29:37.396Z,3.95
2019-04-29T04:32:03.496Z,3.91
2019-04-29T04:34:29.487Z,3.89
2019-04-29T04:36:55.372Z,3.91
2019-04-29T04:39:21.206Z,3.94
2019-04-29T04:41:47.077Z,4.00
2019-04-29T04:44:13.063Z,4.05
2019-04-29T04:46:39.369Z,4.10
2019-04-29T04:49:05.287Z,4.09
2019-04-29T04:51:31.160Z,4.13
2019-04-29T04:53:57.064Z,4.15
2019-04-29T04:56:22.923Z,4.18
2019-04-29T04:58:48.888Z,4.20
2019-04-29T05:01:14.786Z,4.26
2019-04-29T05:03:40.783Z,4.31
2019-04-29T05:06:06.729Z,4.37
2019-04-29T05:08:32.732Z,4.43
2019-04-29T05:10:58.573Z,4.50
2019-04-29T05:13:28.392Z,4.59
2019-04-29T05:15:52.138Z,4.67
2019-04-29T05:18:17.989Z,4.74
2019-04-29T05:20:43.848Z,4.82
2019-04-29T05:23:09.821Z,4.89
2019-04-29T05:25:35.689Z,4.96
2019-04-29T05:28:01.997Z,5.05
2019-04-29T05:30:27.944Z,5.12
2019-04-29T05:32:53.891Z,5.20
2019-04-29T05:35:40.430Z,5.29
2019-04-29T05:38:23.118Z,5.37
2019-04-29T05:40:50.703Z,5.46
2019-04-29T05:43:21.339Z,5.57
2019-04-29T05:46:07.388Z,5.67
2019-04-29T05:48:33.417Z,5.79
2019-04-29T05:51:01.169Z,5.92
2019-04-29T05:53:28.940Z,6.04
2019-04-29T05:55:54.919Z,6.17
2019-04-29T05:58:20.799Z,6.27
2019-04-29T06:00:51.455Z,6.38
2019-04-29T06:03:17.332Z,6.50
2019-04-29T06:05:43.196Z,6.61
2019-04-29T06:08:09.351Z,6.72
2019-04-29T06:10:35.347Z,6.82
2019-04-29T06:13:01.225Z,6.93
2019-04-29T06:15:27.104Z,7.04
2019-04-29T06:17:52.979Z,7.16
2019-04-29T06:20:22.614Z,7.28
2019-04-29T06:22:46.606Z,7.42
2019-04-29T06:25:12.576Z,7.56
2019-04-29T06:27:38.520Z,7.69
2019-04-29T06:30:05.845Z,7.82
2019-04-29T06:32:31.859Z,7.97
2019-04-29T06:34:57.748Z,8.11
2019-04-29T06:37:23.648Z,8.23
2019-04-29T06:39:49.627Z,8.35
2019-04-29T06:42:19.449Z,8.47
2019-04-29T06:44:44.437Z,8.57
2019-04-29T06:47:11.254Z,8.70
2019-04-29T06:49:37.259Z,8.82
2019-04-29T06:52:03.094Z,8.96
2019-04-29T06:54:30.170Z,9.12
2019-04-29T06:56:56.032Z,9.27
2019-04-29T06:59:21.908Z,9.40
2019-04-29T07:01:47.775Z,9.54
2019-04-29T07:04:13.652Z,9.67
2019-04-29T07:06:39.483Z,9.80
2019-04-29T07:09:06.349Z,9.95
2019-04-29T07:11:36.629Z,10.09
2019-04-29T07:13:59.989Z,10.20
2019-04-29T07:16:26.811Z,10.29
2019-04-29T07:18:55.855Z,10.42
2019-04-29T07:21:21.694Z,10.56
2019-04-29T07:23:47.582Z,10.69
2019-04-29T07:26:13.661Z,10.83
2019-04-29T07:28:39.494Z,10.96
2019-04-29T07:31:05.393Z,11.09
2019-04-29T07:33:31.264Z,11.21
2019-04-29T07:36:10.075Z,11.33
2019-04-29T07:38:24.792Z,11.45
2019-04-29T07:40:50.706Z,11.54
2019-04-29T07:43:16.607Z,11.63
2019-04-29T07:45:50.511Z,11.73
2019-04-29T07:48:16.505Z,11.82
2019-04-29T07:50:42.753Z,11.92
2019-04-29T07:53:08.613Z,12.00
2019-04-29T07:55:34.487Z,12.08
2019-04-29T07:58:00.458Z,12.18
2019-04-29T08:00:30.605Z,12.30
2019-04-29T08:02:56.638Z,12.37
2019-04-29T08:05:22.489Z,12.48
2019-04-29T08:07:48.550Z,12.56
2019-04-29T08:10:23.446Z,12.63
2019-04-29T08:12:42.364Z,12.72
2019-04-29T08:15:10.183Z,12.82
2019-04-29T08:17:37.017Z,12.92
2019-04-29T08:20:05.230Z,13.03
2019-04-29T08:22:31.918Z,13.14
2019-04-29T08:24:57.859Z,13.24
2019-04-29T08:27:23.935Z,13.31
2019-04-29T08:29:49.794Z,13.40
2019-04-29T08:32:15.639Z,13.48
2019-04-29T08:34:41.587Z,13.55
2019-04-29T08:37:07.404Z,13.62
2019-04-29T08:39:33.399Z,13.72
2019-04-29T08:42:03.873Z,13.80
2019-04-29T08:44:30.810Z,13.89
2019-04-29T08:46:58.755Z,13.98
2019-04-29T08:49:24.662Z,14.06
2019-04-29T08:51:50.601Z,14.15
2019-04-29T08:54:19.951Z,14.25
2019-04-29T08:57:01.681Z,14.34
2019-04-29T08:59:12.696Z,14.44
2019-04-29T09:01:38.736Z,14.53
2019-04-29T09:04:04.846Z,14.60
2019-04-29T09:06:32.570Z,14.67
2019-04-29T09:08:59.706Z,14.77
2019-04-29T09:11:25.832Z,14.86
2019-04-29T09:13:51.981Z,14.93
2019-04-29T09:16:18.080Z,15.01
2019-04-29T09:18:43.982Z,15.12
2019-04-29T09:21:09.836Z,15.22
2019-04-29T09:23:37.416Z,15.31
2019-04-29T09:26:14.729Z,15.43
2019-04-29T09:28:40.883Z,15.51
2019-04-29T09:31:06.891Z,15.63
2019-04-29T09:33:32.937Z,15.76
2019-04-29T09:35:58.923Z,16.06
2019-04-29T09:38:24.969Z,16.47
2019-04-29T09:40:59.690Z,16.88
2019-04-29T09:43:32.922Z,17.21
2019-04-29T09:46:00.962Z,17.46
2019-04-29T09:48:26.870Z,17.65
2019-04-29T09:50:52.803Z,17.80
2019-04-29T09:53:18.822Z,17.91
2019-04-29T09:55:45.167Z,17.99
2019-04-29T09:58:11.086Z,18.07
2019-04-29T10:00:40.651Z,18.18
2019-04-29T10:03:14.594Z,18.25
2019-04-29T10:05:42.625Z,18.30
2019-04-29T10:08:08.940Z,18.42
2019-04-29T10:10:37.271Z,18.48
2019-04-29T10:13:03.506Z,18.54
2019-04-29T10:15:47.726Z,18.60
2019-04-29T10:18:29.771Z,18.67
2019-04-29T10:21:03.033Z,18.72
2019-04-29T10:23:29.923Z,18.77
2019-04-29T10:25:55.853Z,18.76
2019-04-29T10:28:21.800Z,18.76
2019-04-29T10:30:47.979Z,18.78
2019-04-29T10:33:17.561Z,18.84
2019-04-29T10:35:45.193Z,18.85
2019-04-29T10:38:10.137Z,18.85
2019-04-29T10:40:40.513Z,18.85
2019-04-29T10:43:11.349Z,18.85
2019-04-29T10:45:58.538Z,18.81
2019-04-29T10:48:41.141Z,18.80
2019-04-29T10:51:08.992Z,18.78
2019-04-29T10:53:35.226Z,18.74
2019-04-29T10:56:05.648Z,18.69
2019-04-29T10:58:31.171Z,18.62
2019-04-29T11:01:18.875Z,18.62
2019-04-29T11:03:44.843Z,18.61
2019-04-29T11:06:11.279Z,18.59
2019-04-29T11:08:43.217Z,18.57
2019-04-29T11:11:22.189Z,18.47
2019-04-29T11:13:46.910Z,18.42
2019-04-29T11:16:07.006Z,18.41
2019-04-29T11:18:33.018Z,18.42
2019-04-29T11:20:59.039Z,18.47
2019-04-29T11:23:29.642Z,18.52
2019-04-29T11:26:12.392Z,18.56
2019-04-29T11:28:38.543Z,18.64
2019-04-29T11:31:05.078Z,18.73
2019-04-29T11:33:35.525Z,18.78
2019-04-29T11:36:08.869Z,18.81
2019-04-29T11:38:38.364Z,18.81
2019-04-29T11:41:03.298Z,18.89
2019-04-29T11:43:29.334Z,18.96
2019-04-29T11:45:55.727Z,19.00
2019-04-29T11:48:21.922Z,19.04
2019-04-29T11:50:54.484Z,19.08
2019-04-29T11:53:17.946Z,19.12
2019-04-29T11:55:46.348Z,19.14
2019-04-29T11:58:13.951Z,19.18
2019-04-29T12:00:47.511Z,19.23
2019-04-29T12:03:19.025Z,19.24
2019-04-29T12:05:50.498Z,19.24
2019-04-29T12:08:18.288Z,19.25
2019-04-29T12:10:52.032Z,19.27
2019-04-29T12:13:14.362Z,19.31
2019-04-29T12:15:45.047Z,19.29
2019-04-29T12:18:18.001Z,19.29
2019-04-29T12:21:03.773Z,19.33
2019-04-29T12:23:29.783Z,19.37
2019-04-29T12:25:58.760Z,19.39
2019-04-29T12:28:26.888Z,19.39
2019-04-29T12:30:53.732Z,19.38
2019-04-29T12:33:21.843Z,19.36
2019-04-29T12:36:05.182Z,19.33
2019-04-29T12:38:49.077Z,19.27
2019-04-29T12:41:20.602Z,19.30
2019-04-29T12:43:48.715Z,19.33
2019-04-29T12:46:35.461Z,19.34
2019-04-29T12:49:03.614Z,19.36
2019-04-29T12:51:29.480Z,19.39
2019-04-29T12:53:55.542Z,19.39
2019-04-29T12:56:32.405Z,19.40
2019-04-29T12:58:59.600Z,19.46
2019-04-29T13:01:51.576Z,19.54
2019-04-29T13:04:23.806Z,19.59
2019-04-29T13:06:51.591Z,19.61
2019-04-29T13:09:24.942Z,19.58
2019-04-29T13:11:58.065Z,19.60
2019-04-29T13:14:20.690Z,19.56
2019-04-29T13:16:50.890Z,19.53
2019-04-29T13:19:25.060Z,19.48
2019-04-29T13:21:49.221Z,19.44
2019-04-29T13:24:24.074Z,19.47
2019-04-29T13:26:43.290Z,19.43
2019-04-29T13:29:09.262Z,19.35
2019-04-29T13:31:38.396Z,19.27
2019-04-29T13:34:22.756Z,19.16
2019-04-29T13:36:33.357Z,19.03
2019-04-29T13:38:59.392Z,18.93
2019-04-29T13:41:26.039Z,18.89
2019-04-29T13:43:54.004Z,18.82
2019-04-29T13:46:27.883Z,18.73
2019-04-29T13:49:06.124Z,18.66
2019-04-29T13:51:35.177Z,18.57
2019-04-29T13:53:55.311Z,18.46
2019-04-29T13:56:35.072Z,18.35
2019-04-29T13:58:49.600Z,18.26
2019-04-29T14:01:23.926Z,18.18
2019-04-29T14:03:49.562Z,18.09
2019-04-29T14:06:18.693Z,18.02
2019-04-29T14:08:43.561Z,17.88
2019-04-29T14:11:09.523Z,17.72
2019-04-29T14:13:38.934Z,17.60
2019-04-29T14:16:03.623Z,17.52
2019-04-29T14:18:29.639Z,17.48
2019-04-29T14:20:55.555Z,17.44
2019-04-29T14:23:21.657Z,17.36
2019-04-29T14:25:47.681Z,17.30
2019-04-29T14:28:13.702Z,17.24
2019-04-29T14:30:43.732Z,17.16
2019-04-29T14:33:07.743Z,17.08
2019-04-29T14:35:38.483Z,17.05
2019-04-29T14:38:05.222Z,17.02
2019-04-29T14:40:32.217Z,16.93
2019-04-29T14:43:26.892Z,16.86
2019-04-29T14:45:46.210Z,16.83
2019-04-29T14:48:16.942Z,16.78
2019-04-29T14:50:45.080Z,16.72
2019-04-29T14:53:11.013Z,16.66
2019-04-29T14:55:37.040Z,16.59
2019-04-29T14:58:03.384Z,16.52
2019-04-29T15:00:34.163Z,16.32
2019-04-29T15:03:01.047Z,15.97
2019-04-29T15:05:27.970Z,16.03
2019-04-29T15:07:54.027Z,15.91
2019-04-29T15:10:20.207Z,15.83
2019-04-29T15:13:19.675Z,15.82
2019-04-29T15:15:41.970Z,15.77
2019-04-29T15:18:18.516Z,15.68
2019-04-29T15:20:48.177Z,15.47
2019-04-29T15:23:27.677Z,15.37
2019-04-29T15:25:42.140Z,15.31
2019-04-29T15:28:08.164Z,15.24
2019-04-29T15:30:36.826Z,15.17
2019-04-29T15:33:02.303Z,15.12
2019-04-29T15:35:28.251Z,15.08
2019-04-29T15:37:54.267Z,15.03
2019-04-29T15:40:25.446Z,14.91
2019-04-29T15:42:51.142Z,14.79
2019-04-29T15:45:16.108Z,14.66
2019-04-29T15:47:45.727Z,14.53
2019-04-29T15:50:18.514Z,14.41
2019-04-29T15:52:38.946Z,14.39
2019-04-29T15:55:04.970Z,14.35
2019-04-29T15:57:33.781Z,14.36
2019-04-29T16:00:03.760Z,14.36
2019-04-29T16:02:27.781Z,14.27
2019-04-29T16:05:04.779Z,14.22
2019-04-29T16:07:33.509Z,14.21
2019-04-29T16:10:01.327Z,14.17
2019-04-29T16:12:32.123Z,14.12
2019-04-29T16:14:58.022Z,14.05
2019-04-29T16:17:23.918Z,13.97
2019-04-29T16:19:49.870Z,13.90
2019-04-29T16:22:19.985Z,13.84
2019-04-29T16:24:43.626Z,13.79
2019-04-29T16:27:10.523Z,13.68
2019-04-29T16:29:36.557Z,13.60
2019-04-29T16:32:05.069Z,13.52
2019-04-29T16:34:30.793Z,13.44
2019-04-29T16:36:56.710Z,13.36
2019-04-29T16:39:22.812Z,13.27
2019-04-29T16:42:01.317Z,13.15
2019-04-29T16:46:49.831Z,13.02
2019-04-29T16:49:16.033Z,12.96
2019-04-29T16:51:42.052Z,12.92
2019-04-29T16:54:12.704Z,12.86
2019-04-29T16:56:35.980Z,12.80
2019-04-29T16:59:09.206Z,12.74
2019-04-29T17:01:29.829Z,12.71
2019-04-29T17:03:56.061Z,12.68
2019-04-29T17:06:22.087Z,12.65
2019-04-29T17:09:03.369Z,12.61
2019-04-29T17:11:40.264Z,12.57
2019-04-29T17:14:10.230Z,12.53
2019-04-29T17:16:34.195Z,12.50
2019-04-29T17:19:00.208Z,12.30
2019-04-29T17:21:26.340Z,12.46
2019-04-29T17:23:52.379Z,12.43
2019-04-29T17:26:20.165Z,12.38
2019-04-29T17:29:11.621Z,12.34
2019-04-29T17:31:55.920Z,12.31
2019-04-29T17:34:29.410Z,12.28
2019-04-29T17:36:44.747Z,12.23
2019-04-29T17:39:10.845Z,12.19
2019-04-29T17:41:36.957Z,12.15
2019-04-29T17:44:05.243Z,12.13
2019-04-29T17:46:39.040Z,12.07
2019-04-29T17:49:06.870Z,12.01
2019-04-29T17:51:34.037Z,11.97
2019-04-29T17:54:02.208Z,11.91
2019-04-29T17:56:33.014Z,11.86
2019-04-29T17:59:01.440Z,11.80
2019-04-29T18:01:31.937Z,11.75
2019-04-29T18:04:19.995Z,11.67
2019-04-29T18:06:51.690Z,11.56
2019-04-29T18:09:31.753Z,11.47
2019-04-29T18:11:58.578Z,11.38
2019-04-29T18:14:25.032Z,11.31
2019-04-29T18:16:52.780Z,11.25
2019-04-29T18:19:34.836Z,11.19
2019-04-29T18:22:17.088Z,11.14
2019-04-29T18:24:56.772Z,11.08
2019-04-29T18:27:25.319Z,11.02
2019-04-29T18:29:51.408Z,10.96
2019-04-29T18:32:17.518Z,10.90
2019-04-29T18:34:45.149Z,10.86
2019-04-29T18:37:11.174Z,10.82
2019-04-29T18:39:37.715Z,10.77
2019-04-29T18:42:06.652Z,10.74
2019-04-29T18:44:32.240Z,10.70
2019-04-29T18:46:58.357Z,10.65
2019-04-29T18:49:25.728Z,10.60
2019-04-29T18:51:51.902Z,10.56
2019-04-29T18:54:17.741Z,10.51
2019-04-29T18:56:45.349Z,10.47
2019-04-29T18:59:11.522Z,10.43
2019-04-29T19:01:37.552Z,10.38
2019-04-29T19:04:16.126Z,10.34
2019-04-29T19:06:40.537Z,10.29
2019-04-29T19:09:17.485Z,10.25
2019-04-29T19:11:35.234Z,10.20
2019-04-29T19:14:01.263Z,10.16
2019-04-29T19:16:27.585Z,10.12
2019-04-29T19:19:00.128Z,10.09
2019-04-29T19:21:23.543Z,10.05
2019-04-29T19:23:52.675Z,10.01
2019-04-29T19:26:18.233Z,9.98
2019-04-29T19:28:45.176Z,9.92
2019-04-29T19:31:11.218Z,9.87
2019-04-29T19:33:39.321Z,9.85
2019-04-29T19:36:08.651Z,9.81
2019-04-29T19:38:32.973Z,9.76
2019-04-29T19:40:58.906Z,9.70
2019-04-29T19:43:25.882Z,9.64
2019-04-29T19:45:51.759Z,9.58
2019-04-29T19:48:17.764Z,9.54
2019-04-29T19:50:45.216Z,9.52
2019-04-29T19:53:11.093Z,9.49
2019-04-29T19:55:41.707Z,9.43
2019-04-29T19:58:07.289Z,9.37
2019-04-29T20:00:32.916Z,9.32
2019-04-29T20:02:59.558Z,9.27
2019-04-29T20:05:31.720Z,9.22
2019-04-29T20:07:58.350Z,9.16
2019-04-29T20:10:23.635Z,9.10
2019-04-29T20:12:53.361Z,9.06
2019-04-29T20:15:19.125Z,9.01
2019-04-29T20:17:50.602Z,8.98
2019-04-29T20:20:21.530Z,8.92
2019-04-29T20:22:51.067Z,8.87
2019-04-29T20:25:16.470Z,8.81
2019-04-29T20:27:43.483Z,8.76
2019-04-29T20:30:16.560Z,8.71
2019-04-29T20:32:37.678Z,8.65
2019-04-29T20:35:08.353Z,8.61
2019-04-29T20:37:32.888Z,8.56
2019-04-29T20:40:00.745Z,8.53
2019-04-29T20:42:26.508Z,8.50
2019-04-29T20:44:52.645Z,8.48
2019-04-29T20:47:22.877Z,8.46
2019-04-29T20:49:46.350Z,8.42
2019-04-29T20:52:20.238Z,8.38
2019-04-29T20:54:42.073Z,8.34
2019-04-29T20:57:17.451Z,8.33
2019-04-29T20:59:35.932Z,8.28
2019-04-29T21:02:12.135Z,8.26
2019-04-29T21:04:38.606Z,8.22
2019-04-29T21:07:02.465Z,8.19
2019-04-29T21:09:30.185Z,8.15
2019-04-29T21:12:02.871Z,8.13
2019-04-29T21:14:35.355Z,8.09
2019-04-29T21:17:02.252Z,8.07
2019-04-29T21:19:29.230Z,8.05
2019-04-29T21:21:55.207Z,8.03
2019-04-29T21:24:21.297Z,8.02
2019-04-29T21:26:47.294Z,8.02
2019-04-29T21:29:15.887Z,8.02
2019-04-29T21:31:41.236Z,8.02
2019-04-29T21:34:07.172Z,8.02
2019-04-29T21:36:37.832Z,7.99
2019-04-29T21:39:06.501Z,7.98
2019-04-29T21:41:39.914Z,7.97
2019-04-29T21:44:06.479Z,7.92
2019-04-29T21:46:32.463Z,7.92
2019-04-29T21:48:58.348Z,7.90
2019-04-29T21:51:25.563Z,7.89
2019-04-29T21:53:51.607Z,7.89
2019-04-29T21:56:17.615Z,7.90
2019-04-29T21:58:43.622Z,7.89
2019-04-29T22:01:10.077Z,7.90
2019-04-29T22:03:36.130Z,7.91
2019-04-29T22:06:02.107Z,7.89
2019-04-29T22:08:30.011Z,7.87
2019-04-29T22:11:04.786Z,7.86
2019-04-29T22:13:26.406Z,7.85
2019-04-29T22:16:00.290Z,7.83
2019-04-29T22:18:35.472Z,7.82
2019-04-29T22:21:02.130Z,7.81
2019-04-29T22:23:28.072Z,7.80
2019-04-29T22:25:54.729Z,7.80
2019-04-29T22:28:21.715Z,7.79
2019-04-29T22:30:49.889Z,7.79
2019-04-29T22:33:15.439Z,7.78
2019-04-29T22:35:41.254Z,7.76
2019-04-29T22:38:07.706Z,7.74
2019-04-29T22:40:41.024Z,7.75
2019-04-29T22:43:09.804Z,7.75
2019-04-29T22:45:33.782Z,7.75
2019-04-29T22:48:14.400Z,7.75
2019-04-29T22:50:28.000Z,7.75
2019-04-29T22:52:56.638Z,7.75
2019-04-29T22:55:21.632Z,7.75
2019-04-29T22:57:47.617Z,7.75
2019-04-29T23:00:15.770Z,7.75
2019-04-29T23:02:41.943Z,7.76
2019-04-29T23:05:08.100Z,7.73
2019-04-29T23:07:35.240Z,7.74
2019-04-29T23:10:02.177Z,7.74
2019-04-29T23:12:28.035Z,7.71
2019-04-29T23:14:54.022Z,7.72
2019-04-29T23:17:19.934Z,7.71
2019-04-29T23:19:50.636Z,7.69
2019-04-29T23:22:22.283Z,7.67
2019-04-29T23:24:51.307Z,7.63
2019-04-29T23:27:19.620Z,7.60
2019-04-29T23:29:45.149Z,7.59
2019-04-29T23:32:11.206Z,7.57
2019-04-29T23:34:37.175Z,7.56
2019-04-29T23:37:03.497Z,7.55
2019-04-29T23:39:29.416Z,7.54
2019-04-29T23:41:55.505Z,7.53
2019-04-29T23:44:21.470Z,7.49
2019-04-29T23:46:47.559Z,7.51
2019-04-29T23:49:15.405Z,7.51
2019-04-29T23:51:41.476Z,7.48
2019-04-29T23:54:08.010Z,7.49
2019-04-29T23:56:46.594Z,7.51
2019-04-29T23:59:18.271Z,7.51
